createdAt,value
2018-07-30T00:00:03.280Z,0
2018-07-30T00:05:02.600Z,0
2018-07-30T00:10:03.155Z,0
2018-07-30T00:15:02.536Z,0
2018-07-30T00:20:02.999Z,0
2018-07-30T00:25:03.411Z,0
2018-07-30T00:30:02.736Z,0
2018-07-30T00:35:03.158Z,0
2018-07-30T00:40:02.646Z,0
2018-07-30T00:45:03.135Z,0
2018-07-30T00:50:02.509Z,0
2018-07-30T00:55:03.429Z,0
2018-07-30T01:00:03.344Z,0
2018-07-30T01:05:02.756Z,0
2018-07-30T01:10:03.320Z,0
2018-07-30T01:15:02.834Z,0
2018-07-30T01:20:03.247Z,0
2018-07-30T01:25:02.645Z,0
2018-07-30T01:30:03.201Z,2
2018-07-30T01:35:02.686Z,2
2018-07-30T01:40:03.117Z,3
2018-07-30T01:45:02.585Z,3
2018-07-30T01:50:02.994Z,3
2018-07-30T01:55:03.360Z,3
2018-07-30T02:00:02.855Z,2
2018-07-30T02:05:03.272Z,1
2018-07-30T02:10:02.769Z,3
2018-07-30T02:15:03.164Z,3
2018-07-30T02:20:02.546Z,2
2018-07-30T02:25:02.890Z,3
2018-07-30T02:30:03.321Z,3
2018-07-30T02:35:02.781Z,2
2018-07-30T02:40:03.390Z,1
2018-07-30T02:45:02.830Z,3
2018-07-30T02:50:03.272Z,2
2018-07-30T02:55:02.633Z,2
2018-07-30T03:00:03.198Z,3
2018-07-30T03:05:02.568Z,3
2018-07-30T03:10:03.032Z,1
2018-07-30T03:15:03.552Z,2
2018-07-30T03:20:02.951Z,2
2018-07-30T03:25:03.336Z,2
2018-07-30T03:30:02.725Z,2
2018-07-30T03:35:03.182Z,1
2018-07-30T03:40:02.828Z,0
2018-07-30T03:45:03.221Z,0
2018-07-30T03:50:02.677Z,0
2018-07-30T03:55:03.123Z,0
2018-07-30T04:00:02.831Z,0
2018-07-30T04:05:02.628Z,0
2018-07-30T04:10:03.120Z,0
2018-07-30T04:15:02.627Z,0
2018-07-30T04:20:03.086Z,0
2018-07-30T04:25:02.559Z,0
2018-07-30T04:30:03.062Z,0
2018-07-30T04:35:02.625Z,0
2018-07-30T04:40:03.149Z,0
2018-07-30T04:45:02.481Z,0
2018-07-30T04:50:02.816Z,0
2018-07-30T04:55:03.265Z,0
2018-07-30T05:00:02.605Z,0
2018-07-30T05:05:03.064Z,0
2018-07-30T05:10:02.903Z,0
2018-07-30T05:15:03.978Z,0
2018-07-30T05:20:03.418Z,0
2018-07-30T05:25:02.853Z,0
2018-07-30T05:30:03.324Z,0
2018-07-30T05:35:02.772Z,0
2018-07-30T05:40:03.243Z,0
2018-07-30T05:45:02.698Z,0
2018-07-30T05:50:03.361Z,0
2018-07-30T05:55:02.972Z,0
2018-07-30T06:00:03.340Z,0
2018-07-30T06:05:02.777Z,0
2018-07-30T06:10:03.276Z,0
2018-07-30T06:15:02.697Z,0
2018-07-30T06:20:03.068Z,0
2018-07-30T06:25:03.419Z,0
2018-07-30T06:30:02.770Z,0
2018-07-30T06:35:03.110Z,0
2018-07-30T06:40:02.566Z,0
2018-07-30T06:45:02.940Z,0
2018-07-30T06:50:03.384Z,0
2018-07-30T06:55:02.794Z,0
2018-07-30T07:00:03.267Z,0
2018-07-30T07:05:02.763Z,1
2018-07-30T07:10:03.290Z,2
2018-07-30T07:15:02.758Z,2
2018-07-30T07:20:03.280Z,3
2018-07-30T07:25:02.729Z,0
2018-07-30T07:30:03.661Z,0
2018-07-30T07:35:03.558Z,2
2018-07-30T07:40:03.287Z,2
2018-07-30T07:45:03.369Z,3
2018-07-30T07:50:03.415Z,5
2018-07-30T07:55:02.974Z,2
2018-07-30T08:00:03.363Z,3
2018-07-30T08:05:02.795Z,7
2018-07-30T08:10:03.329Z,9
2018-07-30T08:15:02.680Z,5
2018-07-30T08:20:03.139Z,4
2018-07-30T08:25:02.620Z,5
2018-07-30T08:30:02.979Z,3
2018-07-30T08:35:03.542Z,5
2018-07-30T08:40:03.008Z,3
2018-07-30T08:45:02.557Z,3
2018-07-30T08:50:02.941Z,4
2018-07-30T08:55:03.335Z,5
2018-07-30T09:00:02.763Z,1
2018-07-30T09:05:03.177Z,3
2018-07-30T09:10:02.640Z,3
2018-07-30T09:15:03.288Z,2
2018-07-30T09:20:02.650Z,3
2018-07-30T09:25:03.110Z,2
2018-07-30T09:30:02.564Z,4
2018-07-30T09:35:03.093Z,3
2018-07-30T09:40:02.497Z,2
2018-07-30T09:45:02.907Z,0
2018-07-30T09:50:03.346Z,3
2018-07-30T09:55:02.806Z,6
2018-07-30T10:00:03.278Z,5
2018-07-30T10:05:02.674Z,7
2018-07-30T10:10:03.330Z,2
2018-07-30T10:15:02.687Z,4
2018-07-30T10:20:03.093Z,4
2018-07-30T10:25:02.599Z,1
2018-07-30T10:30:03.164Z,5
2018-07-30T10:35:02.598Z,3
2018-07-30T10:40:03.081Z,4
2018-07-30T10:45:03.633Z,2
2018-07-30T10:50:03.134Z,2
2018-07-30T10:55:02.725Z,1
2018-07-30T11:00:03.159Z,2
2018-07-30T11:05:02.648Z,3
2018-07-30T11:10:03.261Z,2
2018-07-30T11:15:02.648Z,2
2018-07-30T11:20:03.151Z,5
2018-07-30T11:25:02.611Z,5
2018-07-30T11:30:03.040Z,4
2018-07-30T11:35:03.404Z,3
2018-07-30T11:40:02.949Z,3
2018-07-30T11:45:03.354Z,1
2018-07-30T11:50:02.732Z,5
2018-07-30T11:55:03.180Z,3
2018-07-30T12:00:02.637Z,1
2018-07-30T12:05:03.100Z,3
2018-07-30T12:10:02.596Z,5
2018-07-30T12:15:02.970Z,2
2018-07-30T12:20:03.433Z,4
2018-07-30T12:25:02.889Z,4
2018-07-30T12:30:03.594Z,7
2018-07-30T12:35:03.244Z,6
2018-07-30T12:40:02.904Z,7
2018-07-30T12:45:03.674Z,2
2018-07-30T12:50:03.320Z,6
2018-07-30T12:55:02.723Z,4
2018-07-30T13:00:03.266Z,1
2018-07-30T13:05:02.672Z,7
2018-07-30T13:10:03.134Z,3
2018-07-30T13:15:07.804Z,7
2018-07-30T13:20:03.262Z,7
2018-07-30T13:25:02.800Z,4
2018-07-30T13:30:03.174Z,7
2018-07-30T13:35:02.560Z,5
2018-07-30T13:40:03.001Z,2
2018-07-30T13:45:03.461Z,3
2018-07-30T13:50:02.892Z,4
2018-07-30T13:55:03.317Z,5
2018-07-30T14:00:03.345Z,2
2018-07-30T14:05:03.177Z,0
2018-07-30T14:10:02.617Z,4
2018-07-30T14:15:03.041Z,9
2018-07-30T14:20:02.530Z,4
2018-07-30T14:25:02.982Z,7
2018-07-30T14:30:02.572Z,3
2018-07-30T14:35:03.130Z,5
2018-07-30T14:40:02.636Z,5
2018-07-30T14:45:03.475Z,2
2018-07-30T14:50:02.939Z,8
2018-07-30T14:55:03.402Z,2
2018-07-30T15:00:03.199Z,7
2018-07-30T15:05:02.676Z,6
2018-07-30T15:10:03.153Z,5
2018-07-30T15:15:02.540Z,3
2018-07-30T15:20:02.976Z,4
2018-07-30T15:25:03.350Z,5
2018-07-30T15:30:02.725Z,7
2018-07-30T15:35:03.322Z,3
2018-07-30T15:40:02.739Z,7
2018-07-30T15:45:03.124Z,0
2018-07-30T15:50:02.539Z,3
2018-07-30T15:55:03.199Z,7
2018-07-30T16:15:02.992Z,5
2018-07-30T16:20:03.551Z,5
2018-07-30T16:25:03.028Z,2
2018-07-30T16:30:03.395Z,7
2018-07-30T16:35:02.792Z,4
2018-07-30T16:40:03.200Z,6
2018-07-30T16:45:02.565Z,9
2018-07-30T16:50:02.981Z,3
2018-07-30T16:55:03.435Z,4
2018-07-30T17:00:02.902Z,2
2018-07-30T17:05:03.334Z,6
2018-07-30T17:10:02.826Z,3
2018-07-30T17:15:03.212Z,2
2018-07-30T17:20:02.695Z,7
2018-07-30T17:25:03.349Z,7
2018-07-30T17:30:03.192Z,5
2018-07-30T17:35:02.712Z,4
2018-07-30T17:40:03.177Z,5
2018-07-30T17:45:02.568Z,7
2018-07-30T17:50:03.034Z,2
2018-07-30T17:55:03.464Z,2
2018-07-30T18:00:02.865Z,4
2018-07-30T18:05:03.413Z,2
2018-07-30T18:10:02.845Z,2
2018-07-30T18:15:03.280Z,2
2018-07-30T18:20:02.766Z,2
2018-07-30T18:25:03.197Z,0
2018-07-30T18:30:02.692Z,3
2018-07-30T18:35:03.079Z,0
2018-07-30T18:40:02.523Z,1
2018-07-30T18:45:02.950Z,0
2018-07-30T18:50:03.438Z,0
2018-07-30T18:55:02.939Z,0
2018-07-30T19:00:03.484Z,0
2018-07-30T19:05:03.030Z,0
2018-07-30T19:10:02.567Z,0
2018-07-30T19:15:02.911Z,0
2018-07-30T19:20:03.407Z,0
2018-07-30T19:25:02.904Z,0
2018-07-30T19:30:03.467Z,0
2018-07-30T19:35:02.893Z,1
2018-07-30T19:40:03.409Z,0
2018-07-30T19:45:02.824Z,2
2018-07-30T19:50:03.328Z,3
2018-07-30T19:55:02.703Z,2
2018-07-30T20:00:03.177Z,2
2018-07-30T20:05:02.665Z,1
2018-07-30T20:10:03.133Z,2
2018-07-30T20:15:02.534Z,0
2018-07-30T20:20:03.005Z,0
2018-07-30T20:25:02.499Z,0
2018-07-30T20:30:02.921Z,0
2018-07-30T20:35:03.368Z,0
2018-07-30T20:40:02.755Z,0
2018-07-30T20:45:03.898Z,1
2018-07-30T20:50:03.366Z,0
2018-07-30T20:55:02.742Z,0
2018-07-30T21:00:03.216Z,0
2018-07-30T21:05:02.611Z,0
2018-07-30T21:10:03.031Z,0
2018-07-30T21:15:03.429Z,0
2018-07-30T21:20:02.820Z,0
2018-07-30T21:25:03.244Z,0
2018-07-30T21:30:02.595Z,2
2018-07-30T21:35:02.960Z,1
2018-07-30T21:40:03.422Z,0
2018-07-30T21:45:02.754Z,3
2018-07-30T21:50:03.027Z,4
2018-07-30T21:55:03.448Z,2
2018-07-30T22:00:02.817Z,5
2018-07-30T22:05:03.406Z,5
2018-07-30T22:10:02.840Z,3
2018-07-30T22:15:03.449Z,5
2018-07-30T22:20:02.852Z,4
2018-07-30T22:25:03.406Z,4
2018-07-30T22:30:02.789Z,4
2018-07-30T22:35:03.286Z,4
2018-07-30T22:40:02.768Z,7
2018-07-30T22:45:03.116Z,2
2018-07-30T22:50:02.524Z,3
2018-07-30T22:55:02.941Z,3
2018-07-30T23:00:03.378Z,2
2018-07-30T23:05:03.233Z,0
2018-07-30T23:10:02.697Z,2
2018-07-30T23:15:03.366Z,2
2018-07-30T23:20:02.824Z,0
2018-07-30T23:25:03.233Z,0
2018-07-30T23:30:02.670Z,1
2018-07-30T23:35:03.117Z,2
2018-07-30T23:40:02.493Z,0
2018-07-30T23:45:02.909Z,0
2018-07-30T23:50:03.538Z,1
2018-07-30T23:55:03.625Z,0
